Tiempo atmosférico en la estación meteorológica de Mula, Murcia (290 m.)



Fecha
DESCASC
Temp. máxima en grados centígrados (hora)
DESCASC
Temp. mínima en grados centígrados (hora)
DESCASC
Temp. media en grados centígrados
DESCASC
Racha de viento máxima en m/sg (hora)
DESCASC
Velocidad máxima media en intervalos de 10 minutos(hora)
DESCASC
Precipitaciones diarias en mm
DESCASC
Precipitaciones de 00:00 a 06:00 en mm
DESCASC
Precipitaciones de 06:00 a 12:00 en mm
DESCASC
Precipitaciones de 12:00 a 18:00 en mm
DESCASC
Precipitaciones de 18:00 a 24:00 en mm
DESCASC
22-01-2020 -- (--) -- (--) -- -- (--) -- (--) -- 0.2 0 -- 0
21-01-2020 10.3 (16:30) 5.9 (00:00) 8.1 11.11 (04:40) 6.67 (04:40) 34.4 6.6 18.8 0.2 8.8
20-01-2020 6.5 (01:30) 4.2 (10:40) 5.3 16.67 (03:30) 6.39 (03:20) 18 0.2 3.4 6.6 7.8
19-01-2020 12.4 (12:50) 4.3 (00:00) 8.3 13.61 (13:00) 8.61 (13:00) 4 0 0 0 4
18-01-2020 15.1 (15:20) 6.5 (00:00) 10.8 7.22 (10:30) 3.89 (01:40) 0.2 0 0.2 0 0
17-01-2020 18.9 (13:50) 4.5 (00:00) 11.7 9.72 (14:50) 6.94 (15:00) 0 0 0 0 0
16-01-2020 17.6 (13:00) 4.8 (00:00) 11.2 6.67 (05:00) 4.44 (08:30) 0 0 0 0 0
15-01-2020 17.5 (16:10) 3.1 (00:00) 10.3 6.67 (07:00) 4.72 (07:00) 0 0 0 0 0
14-01-2020 15.9 (15:40) 2.1 (00:00) 9 7.78 (09:10) 5.28 (09:10) 0 0 0 0 0
13-01-2020 14.4 (16:20) 1 (00:00) 7.7 6.11 (08:40) 4.17 (04:20) 0 0 0 0 0
12-01-2020 16.5 (16:00) 2.3 (00:00) 9.4 8.61 (14:10) 5.56 (14:10) 0 0 0 0 0
11-01-2020 16.2 (16:30) 4.2 (00:00) 10.2 10 (00:20) 5.83 (12:20) 0 0 0 0 0
10-01-2020 14.7 (16:10) 5 (00:00) 9.8 10.83 (15:10) 7.22 (11:50) 0 0 0 0 0
09-01-2020 14.7 (14:40) 5.5 (00:00) 10.1 4.72 (08:50) 3.61 (08:50) 0 0 0 0 0
08-01-2020 15.1 (15:10) 3.6 (00:00) 9.4 8.33 (07:20) 5.56 (06:50) 0 0 0 0 0
07-01-2020 15 (16:10) 2.1 (00:00) 8.5 5 (23:20) 3.61 (22:40) 0 0 0 0 0
06-01-2020 14.4 (15:30) 3 (00:00) 8.7 5.56 (03:00) 3.89 (20:50) 0 0 0 0 0
05-01-2020 16 (16:20) 3.6 (00:00) 9.8 6.11 (04:40) 3.89 (04:20) 0 0 0 0 0
04-01-2020 14.4 (14:50) 3.7 (00:00) 9 5.83 (09:10) 3.61 (09:10) 0 0 0 0 0
03-01-2020 18.6 (15:30) 1.5 (00:00) 10.1 5.28 (19:40) 3.33 (13:10) 0 0 0 0 0
02-01-2020 10.7 (16:20) 4.8 (00:00) 7.8 6.39 (21:50) 4.44 (21:50) 0 0 0 0 0
01-01-2020 14.6 (15:40) 3.8 (00:00) 9.2 5.56 (08:40) 3.61 (06:00) 0 0 0 0 0
31-12-2019 13.6 (15:00) 3.4 (00:00) 8.5 4.44 (15:50) 3.33 (23:20) 0 0 0 0 0
30-12-2019 -- (--) -- (--) -- -- (--) -- (--) -- 0 0 0 --
29-12-2019 15.1 (13:20) 5.8 (00:00) 10.5 6.11 (09:10) 4.17 (09:10) 0 0 0 0 0
28-12-2019 16.2 (12:40) 3.7 (00:00) 10 6.39 (15:10) 3.89 (15:20) 0 0 0 0 0
27-12-2019 18.4 (14:40) 6.7 (00:00) 12.5 5.83 (22:50) 4.17 (22:10) 0 0 0 0 0

Gráficas

Temp. máximas Temp. mínimas Temp. medias Precipitaciones Rachas de viento máximas Velocidades máximas media en intervalos de 10 minutos

Datos horarios

Fecha y hora oficial Temperatura (ºC) Velocidad del viento (km/h) Dirección del viento Racha (km/h) Dirección de racha Precipitación (mm) Presión (hPa) Tendencia (hPa) Humedad (%)
2020-01-25 23:00:00 8.7 6 Sudoeste 9 Oeste 0 -- -- 93
2020-01-25 22:00:00 9.7 4 Oeste 8 Oeste 0 -- -- 93
2020-01-25 21:00:00 10.2 0 Calma 6 Sudoeste 0 -- -- 93
2020-01-25 20:00:00 10.5 3 Noroeste 4 Este 0 -- -- 91
2020-01-25 19:00:00 11.3 0 Calma 5 Este 0 -- -- 88
2020-01-25 18:00:00 12 2 Este 6 Sudeste 0 -- -- 86
2020-01-25 17:00:00 12.5 3 Sudeste 8 Sudoeste 0 -- -- 82
2020-01-25 16:00:00 12.4 4 Este 8 Este 0 -- -- 83
2020-01-25 15:00:00 12.3 3 Nordeste 6 Este 0 -- -- 83
2020-01-25 14:00:00 12.2 3 Noroeste 5 Oeste 0 -- -- 84
2020-01-25 13:00:00 12.1 0 Calma 7 Oeste 0 -- -- 84
2020-01-25 12:00:00 11.6 3 Sudoeste 17 Oeste 0 -- -- 87
2020-01-25 11:00:00 10.2 4 Oeste 13 Sudoeste 0 -- -- 91
2020-01-25 10:00:00 9.3 3 Noroeste 14 Oeste 0 -- -- 92
2020-01-25 09:00:00 8.5 9 Sudoeste 13 Oeste 0 -- -- 94
2020-01-25 08:00:00 8.3 8 Oeste 13 Oeste 0 -- -- 94
2020-01-25 07:00:00 8.5 7 Oeste 12 Sudoeste 0 -- -- 93
2020-01-25 06:00:00 8.8 5 Sudoeste 10 Oeste 0 -- -- 93
2020-01-25 05:00:00 8.9 7 Oeste 12 Oeste 0 -- -- 94
2020-01-25 04:00:00 8.8 6 Sudoeste 12 Oeste 0 -- -- 94
2020-01-25 03:00:00 8.8 6 Oeste 10 Oeste 0 -- -- 94
2020-01-25 02:00:00 8.9 6 Oeste 10 Oeste 0 -- -- 93
2020-01-25 01:00:00 9.1 7 Sudoeste 12 Oeste 0 -- -- 92
2020-01-25 00:00:00 9.6 4 Sudoeste 8 Oeste 0 -- -- 93
2020-01-24 23:00:00 9.8 4 Oeste 5 Oeste 0 -- -- 93
2020-01-24 22:00:00 9.8 0 Calma 5 Nordeste 0 -- -- 91
2020-01-24 21:00:00 10.1 3 Oeste 9 Sudoeste 0 -- -- 91
2020-01-24 20:00:00 10.2 6 Oeste 8 Oeste 0 -- -- 90
2020-01-24 19:00:00 10.4 8 Oeste 10 Sudoeste 0 -- -- 88
2020-01-24 18:00:00 10.9 7 Oeste 12 Oeste 0 -- -- 86
2020-01-24 17:00:00 11.1 6 Noroeste 10 Noroeste 0 -- -- 84
2020-01-24 16:00:00 11.3 8 Noroeste 13 Noroeste 0 -- -- 82
2020-01-24 15:00:00 11.2 7 Noroeste 17 Sudoeste 0 -- -- 82
2020-01-24 14:00:00 11.3 2 Sudoeste 13 Noroeste 0 -- -- 82
2020-01-24 13:00:00 10.5 5 Oeste 13 Oeste 0 -- -- 85
2020-01-24 12:00:00 9.9 5 Oeste 16 Oeste 0 -- -- 88
2020-01-24 11:00:00 9.3 6 Oeste 14 Sudoeste 0 -- -- 90
2020-01-24 10:00:00 9 5 Oeste 9 Sudoeste 0 -- -- 93
2020-01-24 09:00:00 8.8 6 Oeste 11 Oeste 0 -- -- 94
2020-01-24 08:00:00 8.9 5 Oeste 13 Oeste 0 -- -- 96
2020-01-24 07:00:00 8.9 4 Oeste 10 Oeste 0 -- -- 96
2020-01-24 06:00:00 8.7 6 Oeste 11 Sudoeste 0 -- -- 96
2020-01-24 05:00:00 8.7 3 Oeste 10 Oeste 0 -- -- 96
2020-01-24 04:00:00 8.9 7 Oeste 10 Oeste 0 -- -- 95
2020-01-24 03:00:00 9.3 4 Sudoeste 6 Sudoeste 0 -- -- 94
2020-01-24 02:00:00 9.5 5 Sudoeste 8 Sudoeste 0 -- -- 93
2020-01-24 01:00:00 9.6 0 Calma 3 Este 0 -- -- 93
2020-01-24 00:00:00 9.8 0 Calma 5 Este 0 -- -- 94
2020-01-23 23:00:00 10 3 Este 10 Nordeste 0 -- -- 95
2020-01-23 22:00:00 10.3 5 Nordeste 17 Este 0 -- -- 95
2020-01-23 21:00:00 10.6 10 Nordeste 18 Este 0 -- -- 94
2020-01-23 20:00:00 10.9 8 Este 24 Este 0 -- -- 91
2020-01-23 19:00:00 11.4 12 Este 24 Este 0 -- -- 85
2020-01-23 18:00:00 12.4 10 Este 17 Este 0 -- -- 80
2020-01-23 17:00:00 13.4 8 Este 19 Este 0 -- -- 72
2020-01-23 16:00:00 13.6 10 Este 21 Este 0 -- -- 73
2020-01-23 15:00:00 13.7 10 Sudeste 18 Sudeste 0 -- -- 70
2020-01-23 14:00:00 13 8 Nordeste 20 Este 0 -- -- 75
2020-01-23 13:00:00 12.7 8 Este 18 Este 0 -- -- 77
2020-01-23 12:00:00 11.7 8 Este 13 Este 0 -- -- 81
2020-01-23 11:00:00 9 6 Sudoeste 11 Sudoeste 0 -- -- 88
2020-01-23 10:00:00 7.4 3 Noroeste 12 Sudoeste 0 -- -- 94
2020-01-23 09:00:00 5.9 9 Oeste 14 Oeste 0 -- -- 95
2020-01-23 08:00:00 5.3 6 Oeste 13 Oeste 0 -- -- 95
2020-01-23 07:00:00 5 9 Oeste 15 Oeste 0 -- -- 95
2020-01-23 06:00:00 4.5 6 Oeste 15 Sudoeste 0 -- -- 95
2020-01-23 05:00:00 4.7 11 Oeste 20 Oeste 0 -- -- 94
2020-01-23 04:00:00 5.3 5 Sudoeste 15 Oeste 0 -- -- 93
2020-01-23 03:00:00 5.1 12 Oeste 16 Oeste 0 -- -- 95
2020-01-23 02:00:00 5.2 11 Oeste 17 Oeste 0 -- -- 94
2020-01-23 01:00:00 5.5 8 Oeste 13 Oeste 0 -- -- 92
2020-01-23 00:00:00 6 5 Noroeste 18 Oeste 0 -- -- 92
2020-01-22 23:00:00 6.5 12 Oeste 15 Oeste 0 -- -- 91
2020-01-22 22:00:00 7.5 9 Oeste 15 Oeste 0 -- -- 90
2020-01-22 21:00:00 8.3 9 Oeste 15 Oeste 0 -- -- 89
2020-01-22 20:00:00 9 8 Oeste 12 Oeste 0 -- -- 86
2020-01-22 19:00:00 10.2 6 Oeste 10 Sudoeste 0 -- -- 83
2020-01-22 18:00:00 11.7 5 Oeste 14 Noroeste 0 -- -- 78
2020-01-22 17:00:00 12.5 12 Noroeste 17 Noroeste 0 -- -- 74
2020-01-22 16:00:00 13.8 2 Noroeste 6 Norte 0 -- -- 66
2020-01-22 15:00:00 13.1 5 Sudeste -- -- -- -- -- 65
2020-01-22 14:00:00 -- -- -- -- -- -- -- -- --
2020-01-22 13:00:00 -- -- -- -- -- -- -- -- --
2020-01-22 12:00:00 12.1 7 Noroeste 12 Noroeste 0 -- -- 82
2020-01-22 11:00:00 10.5 3 Sudoeste 8 Oeste 0 -- -- 98
2020-01-22 10:00:00 8.3 4 Oeste 9 Oeste 0 -- -- 98
2020-01-22 09:00:00 7.4 3 Oeste 8 Oeste 0 -- -- 98
2020-01-22 08:00:00 7 4 Oeste 12 Oeste 0 -- -- 98
2020-01-22 07:00:00 6.8 0 Calma 10 Oeste 0 -- -- 98
2020-01-22 06:00:00 6.7 7 Oeste 14 Oeste 0 -- -- 98
2020-01-22 05:00:00 6.7 9 Oeste 14 Oeste 0 -- -- 98
2020-01-22 04:00:00 6.8 5 Oeste 13 Oeste 0 -- -- 97
2020-01-22 03:00:00 6.9 5 Oeste 12 Oeste 0 -- -- 97
2020-01-22 02:00:00 7 6 Oeste 13 Oeste 0 -- -- 97
2020-01-22 01:00:00 7 4 Oeste 8 Sudoeste 0.2 -- -- 97
2020-01-22 00:00:00 7.1 4 Oeste 15 Oeste 7 -- -- 96
2020-01-21 23:00:00 7.3 6 Oeste 15 Sudoeste 1.8 -- -- 95
2020-01-21 22:00:00 7.4 7 Oeste 11 Sudoeste 0 -- -- 94
2020-01-21 21:00:00 7.7 5 Oeste 10 Oeste 0 -- -- 92
2020-01-21 20:00:00 7.8 6 Sudoeste 10 Oeste 0 -- -- 90
2020-01-21 19:00:00 8.1 6 Oeste 10 Oeste 0 -- -- 88
2020-01-21 18:00:00 8.6 7 Oeste 14 Oeste 0 -- -- 87
2020-01-21 17:00:00 9.5 9 Oeste 16 Oeste 0 -- -- 85
2020-01-21 16:00:00 10 9 Oeste 21 Oeste 0 -- -- 84
2020-01-21 15:00:00 9.1 13 Noroeste 23 Noroeste 0 -- -- 88
2020-01-21 14:00:00 8.3 16 Noroeste 35 Noroeste 0 -- -- 94
2020-01-21 13:00:00 6.8 19 Noroeste 28 Noroeste 0.2 -- -- 97
2020-01-21 12:00:00 6 15 Oeste 27 Oeste 2.6 -- -- 97
2020-01-21 11:00:00 6.3 8 Oeste 29 Noroeste 3 -- -- 96
2020-01-21 10:00:00 6.5 12 Noroeste 28 Noroeste 2.6 -- -- 96
2020-01-21 09:00:00 6.6 15 Noroeste 24 Noroeste 4.4 -- -- 95
2020-01-21 08:00:00 6.9 10 Noroeste 33 Noroeste 2.6 -- -- 95
2020-01-21 07:00:00 6.6 6 Noroeste 27 Norte 3.6 -- -- 94
2020-01-21 06:00:00 6.6 9 Norte 27 Nordeste 1.2 -- -- 93
2020-01-21 05:00:00 6.8 10 Norte 40 Norte 0.8 -- -- 91
2020-01-21 04:00:00 6.8 20 Norte 36 Norte 2.4 -- -- 92
2020-01-21 03:00:00 7 13 Norte 31 Noroeste 1.6 -- -- 93
2020-01-21 02:00:00 6.4 18 Noroeste 27 Noroeste 0.6 -- -- 95
2020-01-21 01:00:00 6.3 14 Noroeste 31 Noroeste 0 -- -- 96
2020-01-21 00:00:00 5.9 13 Sudoeste 20 Sudoeste 0.2 -- -- 97
2020-01-20 23:00:00 5.9 7 Oeste 17 Oeste 0.4 -- -- 97
2020-01-20 22:00:00 5.6 9 Oeste 18 Sudoeste 0.4 -- -- 97
2020-01-20 21:00:00 5.6 12 Sudoeste 17 Oeste 0.2 -- -- 96
2020-01-20 20:00:00 5.7 6 Sudoeste 19 Oeste 2 -- -- 96
2020-01-20 19:00:00 5.9 11 Oeste 19 Oeste 4.6 -- -- 94
2020-01-20 18:00:00 6.1 5 Sur 24 Oeste 0.2 -- -- 93
2020-01-20 17:00:00 6.2 5 Norte 17 Sudoeste 0.6 -- -- 93
2020-01-20 16:00:00 5.5 12 Sudoeste 20 Oeste 1.4 -- -- 95
2020-01-20 15:00:00 5.3 12 Oeste 28 Oeste 2 -- -- 95
2020-01-20 14:00:00 4.9 17 Sudoeste 26 Oeste 1.8 -- -- 93
2020-01-20 13:00:00 5.2 12 Oeste 23 Sudoeste 0.6 -- -- 92
2020-01-20 12:00:00 4.8 11 Oeste 19 Oeste 0.4 -- -- 91
2020-01-20 11:00:00 4.5 8 Sudoeste 22 Oeste 0.2 -- -- 88
2020-01-20 10:00:00 4.7 4 Oeste 32 Nordeste 0.6 -- -- 86
2020-01-20 09:00:00 5.3 12 Nordeste 54 Nordeste 0.8 -- -- 83
2020-01-20 08:00:00 4.5 15 Norte 30 Norte 1 -- -- 84
2020-01-20 07:00:00 4.6 18 Norte 33 Norte 0.4 -- -- 82
2020-01-20 06:00:00 5.6 13 Noroeste 36 Norte 0 -- -- 73
2020-01-20 05:00:00 5.9 13 Norte 50 Norte 0 -- -- 70
2020-01-20 04:00:00 6 16 Norte 60 Norte 0 -- -- 71
2020-01-20 03:00:00 6.2 19 Norte 44 Norte 0 -- -- 72
2020-01-20 02:00:00 6.1 17 Norte 43 Nordeste 0.2 -- -- 77
2020-01-20 01:00:00 6.1 19 Norte 42 Norte 0 -- -- 78
2020-01-20 00:00:00 6.3 17 Norte 48 Norte 0 -- -- 78
2020-01-19 23:00:00 5.9 18 Norte 39 Norte 0.2 -- -- 82
2020-01-19 22:00:00 5.1 14 Noroeste 30 Norte 1.2 -- -- 90
2020-01-19 21:00:00 5.1 14 Oeste 32 Oeste 1 -- -- 89
2020-01-19 20:00:00 4.9 10 Oeste 30 Norte 1.6 -- -- 87
2020-01-19 19:00:00 6.5 16 Norte 45 Norte 0 -- -- 73
2020-01-19 18:00:00 6.8 14 Norte 48 Norte 0 -- -- 72
2020-01-19 17:00:00 7.4 14 Norte 34 Noroeste 0 -- -- 73
2020-01-19 16:00:00 8.2 19 Noroeste 34 Norte 0 -- -- 76
2020-01-19 15:00:00 8.4 23 Noroeste 48 Noroeste 0 -- -- 75
2020-01-19 14:00:00 10.3 19 Noroeste 46 Noroeste 0 -- -- 64
2020-01-19 13:00:00 12.1 31 Norte 49 Norte 0 -- -- 55
2020-01-19 12:00:00 12 14 Norte 44 Noroeste 0 -- -- 55
2020-01-19 11:00:00 10.7 22 Noroeste 33 Noroeste 0 -- -- 63
2020-01-19 10:00:00 8.9 11 Noroeste 30 Noroeste 0 -- -- 70
2020-01-19 09:00:00 8.9 13 Noroeste 31 Noroeste 0 -- -- 69
2020-01-19 08:00:00 9 12 Oeste 35 Noroeste 0 -- -- 68
2020-01-19 07:00:00 8.3 15 Noroeste 48 Noroeste 0 -- -- 71
2020-01-19 06:00:00 9.8 25 Noroeste 40 Noroeste 0 -- -- 76
2020-01-19 05:00:00 8.1 11 Norte 26 Norte 0 -- -- 93
2020-01-19 04:00:00 6 8 Oeste 16 Noroeste 0 -- -- 95
2020-01-19 03:00:00 5.7 4 Sudeste 8 Este 0 -- -- 91
2020-01-19 02:00:00 6.7 4 Norte 13 Oeste 0 -- -- 92
2020-01-19 01:00:00 5.8 7 Oeste 15 Oeste 0 -- -- 91
2020-01-19 00:00:00 6.5 8 Sudoeste 9 Sudoeste 0 -- -- 89
2020-01-18 23:00:00 7.3 3 Noroeste 10 Oeste 0 -- -- 88
2020-01-18 22:00:00 8.2 0 Calma 5 Norte 0 -- -- 85
2020-01-18 21:00:00 9.2 2 Noroeste 6 Noroeste 0 -- -- 82
2020-01-18 20:00:00 10.1 3 Noroeste 5 Norte 0 -- -- 79
2020-01-18 19:00:00 11 2 Norte 6 Nordeste 0 -- -- 76
2020-01-18 18:00:00 12.7 4 Nordeste 10 Este 0 -- -- 70
2020-01-18 17:00:00 14.2 5 Este 13 Sudeste 0 -- -- 63
2020-01-18 16:00:00 14.6 6 Sudeste 11 Sudeste 0 -- -- 63
2020-01-18 15:00:00 14.4 3 Sudoeste 10 Sudoeste 0 -- -- 60
2020-01-18 14:00:00 13.1 6 Oeste 14 Oeste 0 -- -- 68
2020-01-18 13:00:00 11.4 12 Oeste 15 Oeste 0 -- -- 74
2020-01-18 12:00:00 10.1 9 Oeste 17 Oeste 0.2 -- -- 80
2020-01-18 11:00:00 9.6 6 Oeste 26 Oeste 0 -- -- 78
2020-01-18 10:00:00 8.6 6 Sudoeste 12 Sudoeste 0 -- -- 76
2020-01-18 09:00:00 7.3 5 Oeste 14 Oeste 0 -- -- 80
2020-01-18 08:00:00 7 9 Oeste 14 Oeste 0 -- -- 81
2020-01-18 07:00:00 6.8 10 Oeste 15 Oeste 0 -- -- 81
2020-01-18 06:00:00 7.1 8 Oeste 10 Oeste 0 -- -- 79
2020-01-18 05:00:00 7.9 10 Sudoeste 19 Oeste 0 -- -- 76
2020-01-18 04:00:00 7.7 13 Sudoeste 18 Sudoeste 0 -- -- 77
2020-01-18 03:00:00 8.6 12 Oeste 21 Oeste 0 -- -- 73
2020-01-18 02:00:00 9 11 Sudoeste 19 Oeste 0 -- -- 72
2020-01-18 01:00:00 9.1 13 Oeste 20 Oeste 0 -- -- 71
2020-01-18 00:00:00 9.4 10 Oeste 20 Sudoeste 0 -- -- 68
2020-01-17 23:00:00 9.7 14 Oeste 22 Oeste 0 -- -- 67
2020-01-17 22:00:00 9.8 12 Sudoeste 21 Oeste 0 -- -- 66
2020-01-17 21:00:00 10.6 13 Oeste 21 Oeste 0 -- -- 64
2020-01-17 20:00:00 12.5 10 Oeste 19 Oeste 0 -- -- 57
2020-01-17 19:00:00 14.2 6 Oeste 18 Oeste 0 -- -- 51
2020-01-17 18:00:00 16.1 7 Sudoeste 15 Oeste 0 -- -- 46
2020-01-17 17:00:00 16.9 6 Noroeste 32 Norte 0 -- -- 45
2020-01-17 16:00:00 17.7 17 Norte 33 Norte 0 -- -- 43
2020-01-17 15:00:00 18.3 25 Noroeste 35 Noroeste 0 -- -- 42
2020-01-17 14:00:00 18.9 17 Norte 25 Noroeste 0 -- -- 38
2020-01-17 13:00:00 18 13 Noroeste 22 Noroeste 0 -- -- 38
2020-01-17 12:00:00 17.2 9 Norte 14 Noroeste 0 -- -- 41
2020-01-17 11:00:00 13.8 3 Norte 12 Oeste 0 -- -- 51
2020-01-17 10:00:00 9.4 7 Oeste 15 Oeste 0 -- -- 60
2020-01-17 09:00:00 6 8 Oeste 15 Noroeste 0 -- -- 69
2020-01-17 08:00:00 4.7 2 Noroeste 14 Oeste 0 -- -- 73
2020-01-17 07:00:00 4.6 10 Sudoeste 15 Sudoeste 0 -- -- 73
2020-01-17 06:00:00 4.7 6 Oeste 13 Oeste 0 -- -- 72
2020-01-17 05:00:00 4.9 6 Oeste 16 Sudoeste 0 -- -- 72
2020-01-17 04:00:00 5.3 9 Oeste 18 Oeste 0 -- -- 71
2020-01-17 03:00:00 6.1 12 Oeste 18 Sudoeste 0 -- -- 69
2020-01-17 02:00:00 6.8 10 Oeste 18 Oeste 0 -- -- 68
2020-01-17 01:00:00 5.5 11 Oeste 17 Oeste 0 -- -- 75
2020-01-17 00:00:00 5.1 12 Oeste 17 Oeste 0 -- -- 79
2020-01-16 23:00:00 6.5 9 Sudoeste 13 Sudoeste 0 -- -- 74
2020-01-16 22:00:00 7.8 7 Oeste 14 Oeste 0 -- -- 70
2020-01-16 21:00:00 8.4 8 Oeste 17 Oeste 0 -- -- 71
2020-01-16 20:00:00 10.5 5 Oeste 9 Oeste 0 -- -- 63
2020-01-16 19:00:00 12.5 0 Calma 6 Sudeste 0 -- -- 56
2020-01-16 18:00:00 15.3 0 Calma 11 Sudeste 0 -- -- 47
2020-01-16 17:00:00 17.1 7 Este 13 Este 0 -- -- 43
2020-01-16 16:00:00 17.6 6 Este 14 Este 0 -- -- 42
2020-01-16 15:00:00 17.4 6 Este 13 Este 0 -- -- 42
2020-01-16 14:00:00 17 7 Sudeste 14 Este 0 -- -- 40
2020-01-16 13:00:00 17.6 4 Sudeste 10 Este 0 -- -- 39
2020-01-16 12:00:00 15.3 5 Noroeste 15 Oeste 0 -- -- 40
2020-01-16 11:00:00 12.2 11 Oeste 20 Oeste 0 -- -- 49
2020-01-16 10:00:00 8.2 9 Oeste 21 Oeste 0 -- -- 61
2020-01-16 09:00:00 5.7 10 Oeste 24 Oeste 0 -- -- 66
2020-01-16 08:00:00 5.4 13 Oeste 19 Oeste 0 -- -- 67
2020-01-16 07:00:00 5 12 Sudoeste 21 Oeste 0 -- -- 70
2020-01-16 06:00:00 5.9 13 Oeste 21 Oeste 0 -- -- 65
2020-01-16 05:00:00 6.7 15 Oeste 24 Oeste 0 -- -- 62
2020-01-16 04:00:00 5.9 12 Oeste 20 Oeste 0 -- -- 68
2020-01-16 03:00:00 5.4 13 Oeste 18 Oeste 0 -- -- 71
2020-01-16 02:00:00 5.2 10 Oeste 17 Oeste 0 -- -- 73
2020-01-16 01:00:00 5.8 7 Oeste 19 Oeste 0 -- -- 72
2020-01-16 00:00:00 6.2 9 Oeste 16 Oeste 0 -- -- 71
2020-01-15 23:00:00 6.6 11 Oeste 13 Oeste 0 -- -- 71
2020-01-15 22:00:00 7.7 6 Oeste 18 Oeste 0 -- -- 69
2020-01-15 21:00:00 8.7 9 Oeste 15 Oeste 0 -- -- 68
2020-01-15 20:00:00 9.7 2 Oeste 8 Noroeste 0 -- -- 68
2020-01-15 19:00:00 11.3 2 Norte 6 Nordeste 0 -- -- 63
2020-01-15 18:00:00 14.2 4 Sur 18 Sudeste 0 -- -- 54
2020-01-15 17:00:00 16.6 5 Sur 15 Sudeste 0 -- -- 42
2020-01-15 16:00:00 17.4 4 Este 10 Este 0 -- -- 39
2020-01-15 15:00:00 16.2 3 Sudeste 11 Sudeste 0 -- -- 46
2020-01-15 14:00:00 15.2 5 Sudeste 10 Sudeste 0 -- -- 47
2020-01-15 13:00:00 14.3 5 Este 10 Este 0 -- -- 47
2020-01-15 12:00:00 13 4 Este 8 Sudeste 0 -- -- 47
2020-01-15 11:00:00 9.4 4 Sudoeste 10 Sudoeste 0 -- -- 61
2020-01-15 10:00:00 6 6 Sudoeste 22 Oeste 0 -- -- 69
2020-01-15 09:00:00 4.3 12 Oeste 22 Oeste 0 -- -- 72
2020-01-15 08:00:00 3.8 13 Oeste 21 Oeste 0 -- -- 72
2020-01-15 07:00:00 3.7 17 Oeste 24 Oeste 0 -- -- 72
2020-01-15 06:00:00 3.9 12 Oeste 21 Oeste 0 -- -- 71
2020-01-15 05:00:00 3.3 9 Oeste 15 Oeste 0 -- -- 76
2020-01-15 04:00:00 3.4 11 Oeste 17 Oeste 0 -- -- 76
2020-01-15 03:00:00 3.9 13 Oeste 18 Oeste 0 -- -- 73
2020-01-15 02:00:00 4.6 13 Oeste 21 Oeste 0 -- -- 70
2020-01-15 01:00:00 5.3 13 Oeste 18 Oeste 0 -- -- 66
2020-01-15 00:00:00 5.1 10 Oeste 17 Oeste 0 -- -- 68
2020-01-14 23:00:00 5.6 14 Oeste 21 Oeste 0 -- -- 67
2020-01-14 22:00:00 5.9 12 Oeste 18 Oeste 0 -- -- 67
2020-01-14 21:00:00 6.4 13 Oeste 19 Oeste 0 -- -- 66
2020-01-14 20:00:00 7.6 12 Oeste 17 Oeste 0 -- -- 64
2020-01-14 19:00:00 9.6 4 Norte 5 Norte 0 -- -- 54
2020-01-14 18:00:00 12.6 0 Calma 6 Sur 0 -- -- 46
2020-01-14 17:00:00 14.6 3 Nordeste 9 Sudeste 0 -- -- 37
2020-01-14 16:00:00 15.7 4 Sudeste 9 Este 0 -- -- 33
2020-01-14 15:00:00 15.2 3 Norte 14 Este 0 -- -- 35
2020-01-14 14:00:00 15 2 Este 9 Norte 0 -- -- 35
2020-01-14 13:00:00 14.3 4 Nordeste 12 Nordeste 0 -- -- 37
2020-01-14 12:00:00 12.6 8 Noroeste 14 Oeste 0 -- -- 41
2020-01-14 11:00:00 9.5 10 Oeste 23 Oeste 0 -- -- 54
2020-01-14 10:00:00 5 14 Oeste 28 Oeste 0 -- -- 64
2020-01-14 09:00:00 2.2 18 Oeste 27 Oeste 0 -- -- 72
2020-01-14 08:00:00 2.3 15 Oeste 24 Oeste 0 -- -- 72
2020-01-14 07:00:00 2.5 15 Oeste 23 Oeste 0 -- -- 73
2020-01-14 06:00:00 3.3 12 Oeste 22 Oeste 0 -- -- 71
2020-01-14 05:00:00 3.3 14 Oeste 22 Oeste 0 -- -- 74
2020-01-14 04:00:00 4 15 Oeste 23 Oeste 0 -- -- 73
2020-01-14 03:00:00 4.6 14 Oeste 23 Oeste 0 -- -- 72
2020-01-14 02:00:00 4.5 15 Oeste 26 Oeste 0 -- -- 75
2020-01-14 01:00:00 4.7 14 Oeste 22 Oeste 0 -- -- 76
2020-01-14 00:00:00 4.9 14 Oeste 21 Oeste 0 -- -- 78
2020-01-13 23:00:00 5.6 10 Oeste 18 Oeste 0 -- -- 78
2020-01-13 22:00:00 6.3 9 Oeste 16 Oeste 0 -- -- 79
2020-01-13 21:00:00 7.5 10 Oeste 17 Oeste 0 -- -- 78
2020-01-13 20:00:00 8.6 7 Oeste 9 Oeste 0 -- -- 80
2020-01-13 19:00:00 10.5 2 Nordeste 8 Este 0 -- -- 75
2020-01-13 18:00:00 12.4 3 Sudeste 12 Sudeste 0 -- -- 70
2020-01-13 17:00:00 14.1 3 Este 8 Nordeste 0 -- -- 53
2020-01-13 16:00:00 14.2 2 Este 7 Este 0 -- -- 47
2020-01-13 15:00:00 14.3 0 Calma 11 Sudeste 0 -- -- 43
2020-01-13 14:00:00 13.5 4 Sudeste 12 Sudeste 0 -- -- 43
2020-01-13 13:00:00 13 6 Sudeste 11 Sudeste 0 -- -- 43
2020-01-13 12:00:00 11.9 3 Oeste 9 Oeste 0 -- -- 48
2020-01-13 11:00:00 8.4 7 Sudoeste 12 Oeste 0 -- -- 58
2020-01-13 10:00:00 4.1 9 Oeste 17 Oeste 0 -- -- 74
2020-01-13 09:00:00 1.2 10 Oeste 22 Oeste 0 -- -- 83
2020-01-13 08:00:00 1.3 10 Oeste 19 Oeste 0 -- -- 82
2020-01-13 07:00:00 1.3 10 Oeste 18 Oeste 0 -- -- 82
2020-01-13 06:00:00 1.6 12 Oeste 18 Oeste 0 -- -- 83
2020-01-13 05:00:00 1.3 13 Oeste 21 Oeste 0 -- -- 86
2020-01-13 04:00:00 1.5 14 Oeste 18 Oeste 0 -- -- 89
2020-01-13 03:00:00 2 12 Oeste 21 Oeste 0 -- -- 89
2020-01-13 02:00:00 2.6 9 Oeste 18 Oeste 0 -- -- 87
2020-01-13 01:00:00 3.3 12 Oeste 21 Oeste 0 -- -- 85
2020-01-13 00:00:00 4.4 12 Oeste 17 Oeste 0 -- -- 81
2020-01-12 23:00:00 4.9 11 Oeste 17 Oeste 0 -- -- 79
2020-01-12 22:00:00 4.6 11 Oeste 13 Oeste 0 -- -- 76
2020-01-12 21:00:00 7 0 Calma 6 Norte 0 -- -- 73
2020-01-12 20:00:00 9 0 Calma 9 Nordeste 0 -- -- 68
2020-01-12 19:00:00 10.6 4 Nordeste 10 Nordeste 0 -- -- 58
2020-01-12 18:00:00 14.1 2 Noroeste 13 Nordeste 0 -- -- 36
2020-01-12 17:00:00 16.1 2 Nordeste 9 Nordeste 0 -- -- 31
2020-01-12 16:00:00 16.5 8 Norte 23 Norte 0 -- -- 31
2020-01-12 15:00:00 15.9 12 Noroeste 31 Noroeste 0 -- -- 36
2020-01-12 14:00:00 15 18 Noroeste 28 Noroeste 0 -- -- 38
2020-01-12 13:00:00 14.6 7 Noroeste 22 Oeste 0 -- -- 39
2020-01-12 12:00:00 12 15 Oeste 27 Oeste 0 -- -- 42
2020-01-12 11:00:00 10 12 Oeste 21 Noroeste 0 -- -- 50
2020-01-12 10:00:00 6.4 14 Oeste 24 Noroeste 0 -- -- 63
2020-01-12 09:00:00 3.5 10 Oeste 23 Oeste 0 -- -- 74
2020-01-12 08:00:00 2.3 14 Oeste 20 Oeste 0 -- -- 78
2020-01-12 07:00:00 2.9 13 Oeste 23 Oeste 0 -- -- 76
2020-01-12 06:00:00 3.3 16 Oeste 25 Oeste 0 -- -- 76
2020-01-12 05:00:00 2.8 18 Oeste 25 Oeste 0 -- -- 80
2020-01-12 04:00:00 2.6 17 Oeste 23 Oeste 0 -- -- 81
2020-01-12 03:00:00 2.5 12 Oeste 20 Oeste 0 -- -- 85
2020-01-12 02:00:00 3 13 Oeste 19 Oeste 0 -- -- 83
2020-01-12 01:00:00 3.3 12 Oeste 16 Oeste 0 -- -- 84
2020-01-12 00:00:00 4.2 9 Oeste 17 Oeste 0 -- -- 82
2020-01-11 23:00:00 5.2 13 Oeste 17 Oeste 0 -- -- 79
2020-01-11 22:00:00 5.8 11 Oeste 18 Oeste 0 -- -- 75
2020-01-11 21:00:00 8 2 Oeste 6 Norte 0 -- -- 74
2020-01-11 20:00:00 8.9 2 Norte 17 Nordeste 0 -- -- 71
2020-01-11 19:00:00 10.3 8 Oeste 12 Oeste 0 -- -- 57
2020-01-11 18:00:00 13.2 4 Noroeste 10 Noroeste 0 -- -- 47
2020-01-11 17:00:00 15.3 3 Nordeste 13 Oeste 0 -- -- 42
2020-01-11 16:00:00 15.4 9 Noroeste 18 Noroeste 0 -- -- 42
2020-01-11 15:00:00 15.4 8 Noroeste 22 Noroeste 0 -- -- 42
2020-01-11 14:00:00 14.4 15 Noroeste 27 Noroeste 0 -- -- 45
2020-01-11 13:00:00 13.5 18 Noroeste 29 Norte 0 -- -- 49
2020-01-11 12:00:00 12.3 18 Noroeste 29 Noroeste 0 -- -- 52
2020-01-11 11:00:00 10.9 17 Noroeste 26 Noroeste 0 -- -- 55
2020-01-11 10:00:00 9.3 9 Oeste 22 Oeste 0 -- -- 61
2020-01-11 09:00:00 7.1 12 Sudoeste 19 Sudoeste 0 -- -- 67
2020-01-11 08:00:00 8 9 Oeste 19 Sudoeste 0 -- -- 64
2020-01-11 07:00:00 8.5 10 Oeste 20 Oeste 0 -- -- 62
2020-01-11 06:00:00 8.8 8 Oeste 25 Noroeste 0 -- -- 61
2020-01-11 05:00:00 8.9 17 Noroeste 31 Noroeste 0 -- -- 61
2020-01-11 04:00:00 9 21 Noroeste 31 Noroeste 0 -- -- 65
2020-01-11 03:00:00 8.7 21 Noroeste 32 Oeste 0 -- -- 65
2020-01-11 02:00:00 9.5 6 Oeste 28 Noroeste 0 -- -- 66
2020-01-11 01:00:00 9.7 16 Norte 36 Norte 0 -- -- 64
2020-01-11 00:00:00 10 15 Norte 24 Norte 0 -- -- 64
2020-01-10 23:00:00 10.3 6 Norte 31 Norte 0 -- -- 63
2020-01-10 22:00:00 10.3 7 Norte 18 Norte 0 -- -- 64
2020-01-10 21:00:00 9.9 6 Norte 17 Noroeste 0 -- -- 63
2020-01-10 20:00:00 10.7 9 Nordeste 25 Norte 0 -- -- 57
2020-01-10 19:00:00 10.7 9 Noroeste 22 Noroeste 0 -- -- 50
2020-01-10 18:00:00 12.8 14 Norte 27 Noroeste 0 -- -- 44
2020-01-10 17:00:00 14.5 17 Norte 37 Norte 0 -- -- 43
2020-01-10 16:00:00 14.6 21 Noroeste 39 Noroeste 0 -- -- 45
2020-01-10 15:00:00 14.5 13 Norte 32 Noroeste 0 -- -- 49
2020-01-10 14:00:00 13.5 18 Noroeste 34 Noroeste 0 -- -- 55
2020-01-10 13:00:00 12.9 17 Noroeste 33 Noroeste 0 -- -- 60
2020-01-10 12:00:00 12.2 24 Noroeste 38 Oeste 0 -- -- 62
2020-01-10 11:00:00 11.5 10 Oeste 39 Noroeste 0 -- -- 64
2020-01-10 10:00:00 8.7 13 Sudoeste 27 Sudoeste 0 -- -- 71
2020-01-10 09:00:00 7.6 12 Oeste 24 Noroeste 0 -- -- 74
2020-01-10 08:00:00 8.2 11 Oeste 30 Noroeste 0 -- -- 72
2020-01-10 07:00:00 5.1 14 Oeste 27 Noroeste 0 -- -- 86
2020-01-10 06:00:00 5.4 16 Oeste 26 Oeste 0 -- -- 88
2020-01-10 05:00:00 5.6 12 Oeste 21 Oeste 0 -- -- 90
2020-01-10 04:00:00 5 9 Oeste 15 Oeste 0 -- -- 93
2020-01-10 03:00:00 5.3 11 Oeste 13 Oeste 0 -- -- 92
2020-01-10 02:00:00 5.8 0 Calma 8 Oeste 0 -- -- 91
2020-01-10 01:00:00 6.3 4 Sudoeste 12 Sudoeste 0 -- -- 90
2020-01-10 00:00:00 6.3 5 Oeste 11 Sudoeste 0 -- -- 89
2020-01-09 23:00:00 7.1 3 Oeste 7 Noroeste 0 -- -- 87
2020-01-09 22:00:00 8.1 4 Oeste 13 Oeste 0 -- -- 84
2020-01-09 21:00:00 8.3 5 Oeste 10 Oeste 0 -- -- 84
2020-01-09 20:00:00 9.3 3 Nordeste 8 Este 0 -- -- 80
2020-01-09 19:00:00 11 4 Este 13 Sudeste 0 -- -- 74
2020-01-09 18:00:00 12.8 4 Este 10 Este 0 -- -- 66
2020-01-09 17:00:00 14.1 3 Este 12 Sudeste 0 -- -- 61
2020-01-09 16:00:00 14.5 5 Este 13 Este 0 -- -- 59
2020-01-09 15:00:00 14.6 6 Este 14 Sudeste 0 -- -- 58
2020-01-09 14:00:00 14.1 6 Sudeste 15 Sur 0 -- -- 59
2020-01-09 13:00:00 14.3 5 Sudeste 12 Sudeste 0 -- -- 58
2020-01-09 12:00:00 13.3 6 Sudeste 13 Sudeste 0 -- -- 61
2020-01-09 11:00:00 10.9 7 Sudoeste 14 Oeste 0 -- -- 72
2020-01-09 10:00:00 7.6 7 Oeste 17 Sudoeste 0 -- -- 82
2020-01-09 09:00:00 5.5 11 Oeste 17 Oeste 0 -- -- 88
2020-01-09 08:00:00 5.9 11 Oeste 16 Oeste 0 -- -- 87
2020-01-09 07:00:00 6.3 10 Oeste 14 Oeste 0 -- -- 86
2020-01-09 06:00:00 5.9 10 Oeste 16 Oeste 0 -- -- 88
2020-01-09 05:00:00 6 10 Sudoeste 16 Oeste 0 -- -- 85
2020-01-09 04:00:00 6.8 10 Oeste 15 Sudoeste 0 -- -- 84
2020-01-09 03:00:00 6.9 10 Oeste 14 Oeste 0 -- -- 85
2020-01-09 02:00:00 6.9 8 Oeste 15 Oeste 0 -- -- 85
2020-01-09 01:00:00 6.6 10 Oeste 12 Oeste 0 -- -- 86
2020-01-09 00:00:00 5.9 10 Oeste 14 Oeste 0 -- -- 87
2020-01-08 23:00:00 5.2 10 Sudoeste 15 Oeste 0 -- -- 86
2020-01-08 22:00:00 5.7 8 Oeste 10 Oeste 0 -- -- 83
2020-01-08 21:00:00 6.7 9 Oeste 13 Sudoeste 0 -- -- 82
2020-01-08 20:00:00 8.5 7 Oeste 9 Oeste 0 -- -- 77
2020-01-08 19:00:00 10.3 4 Noroeste 6 Noroeste 0 -- -- 71
2020-01-08 18:00:00 12.2 3 Este 15 Este 0 -- -- 65
2020-01-08 17:00:00 13.9 6 Este 19 Este 0 -- -- 53
2020-01-08 16:00:00 14.9 8 Este 17 Este 0 -- -- 48
2020-01-08 15:00:00 15 6 Este 16 Este 0 -- -- 49
2020-01-08 14:00:00 14.5 11 Este 18 Este 0 -- -- 46
2020-01-08 13:00:00 14.6 12 Este 21 Este 0 -- -- 43
2020-01-08 12:00:00 14.9 4 Sudeste 13 Noroeste 0 -- -- 43
2020-01-08 11:00:00 12.7 5 Oeste 14 Sudoeste 0 -- -- 47
2020-01-08 10:00:00 8.5 10 Oeste 18 Oeste 0 -- -- 57
2020-01-08 09:00:00 6.3 13 Oeste 24 Oeste 0 -- -- 58
2020-01-08 08:00:00 6.1 14 Oeste 30 Oeste 0 -- -- 60
2020-01-08 07:00:00 6 19 Oeste 29 Oeste 0 -- -- 62
2020-01-08 06:00:00 6.1 15 Oeste 29 Oeste 0 -- -- 64
2020-01-08 05:00:00 5.5 17 Oeste 28 Oeste 0 -- -- 67
2020-01-08 04:00:00 5.5 19 Oeste 26 Oeste 0 -- -- 69
2020-01-08 03:00:00 5.3 18 Oeste 26 Oeste 0 -- -- 71
2020-01-08 02:00:00 4.1 7 Oeste 13 Oeste 0 -- -- 79
2020-01-08 01:00:00 4.3 6 Oeste 13 Oeste 0 -- -- 81
2020-01-08 00:00:00 3.8 7 Oeste 18 Oeste 0 -- -- 85
2020-01-07 23:00:00 4.5 13 Oeste 17 Oeste 0 -- -- 86
2020-01-07 22:00:00 5.4 10 Oeste 13 Oeste 0 -- -- 84
2020-01-07 21:00:00 6.7 10 Oeste 15 Oeste 0 -- -- 81
2020-01-07 20:00:00 8.1 9 Oeste 12 Oeste 0 -- -- 77
2020-01-07 19:00:00 9.9 3 Norte 5 Norte 0 -- -- 67
2020-01-07 18:00:00 12.4 0 Calma 12 Nordeste 0 -- -- 59
2020-01-07 17:00:00 14.1 8 Este 12 Este 0 -- -- 53
2020-01-07 16:00:00 14.9 6 Este 13 Sudeste 0 -- -- 51
2020-01-07 15:00:00 14.8 5 Sudeste 12 Sudeste 0 -- -- 49
2020-01-07 14:00:00 14.1 5 Este 11 Sudeste 0 -- -- 50
2020-01-07 13:00:00 13.3 6 Sudeste 13 Sudeste 0 -- -- 50
2020-01-07 12:00:00 12.5 4 Sudeste 8 Este 0 -- -- 52
2020-01-07 11:00:00 10.3 2 Sur 9 Oeste 0 -- -- 58
2020-01-07 10:00:00 5 5 Oeste 12 Oeste 0 -- -- 76
2020-01-07 09:00:00 2.1 6 Oeste 12 Oeste 0 -- -- 83
2020-01-07 08:00:00 3.2 9 Sudoeste 11 Sudoeste 0 -- -- 78
2020-01-07 07:00:00 4 7 Oeste 12 Oeste 0 -- -- 74
2020-01-07 06:00:00 4 9 Oeste 15 Oeste 0 -- -- 75
2020-01-07 05:00:00 3.5 8 Oeste 17 Sudoeste 0 -- -- 79
2020-01-07 04:00:00 4.1 4 Sudoeste 14 Sudoeste 0 -- -- 77
2020-01-07 03:00:00 4 10 Oeste 15 Oeste 0 -- -- 81
2020-01-07 02:00:00 3.6 9 Sudoeste 12 Sudoeste 0 -- -- 82
2020-01-07 01:00:00 3.8 8 Sudoeste 10 Oeste 0 -- -- 84
2020-01-07 00:00:00 4.5 5 Oeste 14 Oeste 0 -- -- 83
2020-01-06 23:00:00 5.3 9 Oeste 17 Oeste 0 -- -- 82
2020-01-06 22:00:00 5.6 12 Oeste 19 Oeste 0 -- -- 82
2020-01-06 21:00:00 6.6 12 Oeste 18 Oeste 0 -- -- 80
2020-01-06 20:00:00 7.8 10 Oeste 15 Oeste 0 -- -- 76
2020-01-06 19:00:00 9.8 2 Noroeste 5 Noroeste 0 -- -- 66
2020-01-06 18:00:00 12.2 3 Este 9 Este 0 -- -- 59
2020-01-06 17:00:00 13.8 6 Este 11 Este 0 -- -- 53
2020-01-06 16:00:00 14.3 7 Este 13 Sudeste 0 -- -- 49
2020-01-06 15:00:00 14.2 6 Sudeste 13 Sudeste 0 -- -- 49
2020-01-06 14:00:00 13.5 8 Sudeste 13 Sudeste 0 -- -- 54
2020-01-06 13:00:00 13.4 6 Este 11 Sudeste 0 -- -- 55
2020-01-06 12:00:00 12.5 3 Norte 8 Sudoeste 0 -- -- 55
2020-01-06 11:00:00 9.6 6 Sudoeste 15 Oeste 0 -- -- 63
2020-01-06 10:00:00 5.7 9 Oeste 17 Oeste 0 -- -- 78